createdAt,value
2022-10-20T00:55:30.466Z,100602.25
2022-10-20T01:05:36.404Z,100586.48
2022-10-20T01:15:47.691Z,100578.23
2022-10-20T01:26:07.913Z,100566.55
2022-10-20T01:36:21.787Z,100561.05
2022-10-20T01:46:29.013Z,100563.66
2022-10-20T02:08:08.091Z,100559.73
2022-10-20T02:18:19.139Z,100555.64
2022-10-20T02:39:47.599Z,100551.88
2022-10-20T03:01:15.517Z,100565.46
2022-10-20T03:11:21.181Z,100568.20
2022-10-20T03:21:26.813Z,100579.90
2022-10-20T03:31:32.526Z,100589.69
2022-10-20T03:41:38.155Z,100594.48
2022-10-20T03:51:43.785Z,100591.21
2022-10-20T04:01:50.219Z,100587.59
2022-10-20T04:11:55.903Z,100592.40
2022-10-20T04:22:01.487Z,100586.21
2022-10-20T04:32:07.543Z,100576.78
2022-10-20T04:42:13.208Z,100562.04
2022-10-20T04:52:20.881Z,100552.92
2022-10-20T05:02:26.580Z,100547.23
2022-10-20T05:12:32.138Z,100550.32
2022-10-20T05:22:38.091Z,100555.83
2022-10-20T05:32:43.862Z,100559.77
2022-10-20T05:42:49.463Z,100559.41
2022-10-20T05:52:55.434Z,100581.06
2022-10-20T06:03:01.333Z,100591.46
2022-10-20T06:13:07.000Z,100598.98
2022-10-20T06:23:12.630Z,100607.55
2022-10-20T06:33:18.187Z,100608.48
2022-10-20T06:43:23.849Z,100605.05
2022-10-20T06:53:31.091Z,100601.64
2022-10-20T07:03:38.430Z,100607.02
2022-10-20T07:13:44.558Z,100604.90
2022-10-20T07:23:51.508Z,100613.04
2022-10-20T07:34:13.181Z,100619.27
2022-10-20T07:44:20.360Z,100627.71
2022-10-20T07:54:26.003Z,100630.91
2022-10-20T08:04:32.017Z,100625.67
2022-10-20T08:14:37.970Z,100620.63
2022-10-20T08:24:43.585Z,100627.19
2022-10-20T08:34:49.226Z,100632.66
2022-10-20T08:44:59.411Z,100630.69
2022-10-20T08:55:07.836Z,100627.66
2022-10-20T09:05:18.224Z,100626.69
2022-10-20T09:15:26.672Z,100628.56
2022-10-20T09:25:33.178Z,100621.88
2022-10-20T09:35:40.701Z,100614.13
2022-10-20T09:45:54.291Z,100614.09
2022-10-20T09:56:00.352Z,100611.30
2022-10-20T10:06:23.345Z,100606.77
2022-10-20T10:16:40.623Z,100609.52
2022-10-20T10:26:49.038Z,100599.08
2022-10-20T10:36:54.843Z,100588.60
2022-10-20T10:47:14.599Z,100582.73
2022-10-20T10:57:31.501Z,100573.86
2022-10-20T11:07:45.090Z,100566.64
2022-10-20T11:18:02.002Z,100556.39
2022-10-20T11:28:30.477Z,100544.45
2022-10-20T11:38:41.469Z,100527.40
2022-10-20T11:48:51.860Z,100514.78
2022-10-20T11:59:16.229Z,100509.21
2022-10-20T12:09:36.329Z,100499.77
2022-10-20T12:19:41.976Z,100496.63
2022-10-20T12:29:59.277Z,100497.86
2022-10-20T12:40:25.723Z,100489.23
2022-10-20T12:50:36.855Z,100478.72
2022-10-20T13:01:07.047Z,100468.60
2022-10-20T13:11:41.971Z,100457.41
2022-10-20T13:21:49.785Z,100454.92
2022-10-20T13:32:12.955Z,100446.23
2022-10-20T13:42:44.010Z,100433.30
2022-10-20T13:52:53.853Z,100424.44
2022-10-20T14:03:02.271Z,100409.96
2022-10-20T14:13:11.405Z,100400.70
2022-10-20T14:23:17.323Z,100396.27
2022-10-20T14:33:23.436Z,100395.43
2022-10-20T14:43:37.236Z,100384.40
2022-10-20T14:53:42.848Z,100368.27
2022-10-20T15:03:48.609Z,100368.50
2022-10-20T15:13:56.221Z,100364.35
2022-10-20T15:24:02.259Z,100360.11
2022-10-20T15:34:10.229Z,100363.05
2022-10-20T15:44:16.374Z,100350.31
2022-10-20T15:54:23.811Z,100336.27
2022-10-20T16:04:31.450Z,100333.08
2022-10-20T16:14:38.128Z,100331.48
2022-10-20T16:24:43.820Z,100335.84
2022-10-20T16:34:49.443Z,100339.58
2022-10-20T16:44:55.082Z,100335.84
2022-10-20T16:55:00.784Z,100336.69
2022-10-20T17:05:09.347Z,100336.06
2022-10-20T17:15:15.430Z,100343.27
2022-10-20T17:25:21.049Z,100352.98
2022-10-20T17:35:26.758Z,100345.13
2022-10-20T17:45:35.017Z,100355.54
2022-10-20T17:55:43.283Z,100356.17
2022-10-20T18:05:48.876Z,100339.74
2022-10-20T18:15:54.658Z,100332.55
2022-10-20T18:26:06.226Z,100316.52
2022-10-20T18:36:14.251Z,100313.09
2022-10-20T18:46:20.164Z,100310.65
2022-10-20T18:56:27.364Z,100307.41
2022-10-20T19:06:35.065Z,100305.80
2022-10-20T19:16:39.897Z,100286.32
2022-10-20T19:26:56.785Z,100285.04
2022-10-20T19:37:12.727Z,100281.12
2022-10-20T19:47:22.586Z,100285.11
2022-10-20T19:57:28.526Z,100282.72
2022-10-20T20:07:34.513Z,100274.20
2022-10-20T20:17:40.681Z,100256.57
2022-10-20T20:27:46.368Z,100253.21
2022-10-20T20:37:52.065Z,100241.86
2022-10-20T20:47:57.741Z,100239.31
2022-10-20T20:58:03.670Z,100241.13
2022-10-20T21:08:09.462Z,100233.05
2022-10-20T21:18:15.011Z,100216.08
2022-10-20T21:28:20.560Z,100206.55
2022-10-20T21:38:29.238Z,100186.68
2022-10-20T21:58:42.164Z,100181.60
2022-10-20T22:08:50.512Z,100186.48
2022-10-20T22:18:59.043Z,100170.52
2022-10-20T22:29:06.625Z,100166.39
2022-10-20T22:49:23.476Z,100154.41
2022-10-20T22:59:29.088Z,100144.43
2022-10-20T23:09:34.774Z,100150.71
2022-10-20T23:19:40.386Z,100146.90
2022-10-20T23:29:45.969Z,100150.84
2022-10-20T23:39:51.818Z,100146.34
2022-10-20T23:49:57.645Z,100142.16
